createdAt,value
2017-06-02T00:00:33.977Z,0
2017-06-02T00:01:34.352Z,0
2017-06-02T00:02:34.022Z,0
2017-06-02T00:03:19.746Z,0
2017-06-02T00:04:19.449Z,0
2017-06-02T00:05:19.472Z,0
2017-06-02T00:06:34.417Z,0
2017-06-02T00:09:19.567Z,0
2017-06-02T00:10:19.591Z,0
2017-06-02T00:11:19.920Z,0
2017-06-02T00:12:19.709Z,0
2017-06-02T00:13:34.280Z,0
2017-06-02T00:14:19.682Z,0
2017-06-02T00:15:34.630Z,0
2017-06-02T00:16:19.733Z,0
2017-06-02T00:17:49.294Z,0
2017-06-02T00:18:19.779Z,0
2017-06-02T00:19:34.724Z,0
2017-06-02T00:20:20.131Z,0
2017-06-02T00:21:34.769Z,0
2017-06-02T00:23:20.210Z,0
2017-06-02T00:24:20.221Z,0
2017-06-02T00:26:20.020Z,0
2017-06-02T00:27:19.687Z,0
2017-06-02T00:28:20.013Z,0
2017-06-02T00:29:20.338Z,0
2017-06-02T00:30:20.363Z,0
2017-06-02T00:31:20.090Z,0
2017-06-02T00:32:20.413Z,0
2017-06-02T00:33:20.134Z,0
2017-06-02T00:34:34.771Z,0
2017-06-02T00:35:20.182Z,0
2017-06-02T00:36:35.121Z,0
2017-06-02T00:37:20.229Z,0
2017-06-02T00:38:20.247Z,0
2017-06-02T00:40:19.997Z,0
2017-06-02T00:41:20.316Z,0
2017-06-02T00:42:34.960Z,0
2017-06-02T00:43:20.701Z,0
2017-06-02T00:44:20.688Z,0
2017-06-02T00:45:20.712Z,0
2017-06-02T00:46:20.735Z,0
2017-06-02T00:47:20.761Z,0
2017-06-02T00:48:35.096Z,0
2017-06-02T00:49:34.815Z,0
2017-06-02T00:50:20.827Z,0
2017-06-02T00:51:20.856Z,0
2017-06-02T00:52:20.623Z,0
2017-06-02T00:53:35.210Z,0
2017-06-02T00:54:35.234Z,0
2017-06-02T00:55:20.945Z,0
2017-06-02T00:56:20.360Z,0
2017-06-02T00:57:20.384Z,0
2017-06-02T00:58:20.717Z,0
2017-06-02T00:59:20.735Z,0
2017-06-02T01:00:20.759Z,0
2017-06-02T01:01:20.778Z,0
2017-06-02T01:02:21.108Z,0
2017-06-02T01:03:20.824Z,0
2017-06-02T01:04:21.160Z,0
2017-06-02T01:05:21.177Z,0
2017-06-02T01:06:21.199Z,0
2017-06-02T01:07:35.840Z,0
2017-06-02T01:08:35.861Z,0
2017-06-02T01:09:35.882Z,0
2017-06-02T01:10:35.906Z,0
2017-06-02T01:11:21.313Z,0
2017-06-02T01:12:21.339Z,0
2017-06-02T01:13:21.361Z,0
2017-06-02T01:14:21.385Z,0
2017-06-02T01:15:21.101Z,0
2017-06-02T01:16:21.126Z,0
2017-06-02T01:17:36.071Z,0
2017-06-02T01:18:21.172Z,0
2017-06-02T01:19:21.195Z,0
2017-06-02T01:20:50.451Z,0
2017-06-02T01:21:21.239Z,0
2017-06-02T01:22:21.566Z,0
2017-06-02T01:23:35.903Z,0
2017-06-02T01:24:21.004Z,0
2017-06-02T01:26:35.969Z,0
2017-06-02T01:27:21.681Z,0
2017-06-02T01:28:21.399Z,0
2017-06-02T01:29:21.724Z,0
2017-06-02T01:30:21.142Z,0
2017-06-02T01:32:21.192Z,0
2017-06-02T01:33:21.823Z,0
2017-06-02T01:34:36.457Z,0
2017-06-02T01:35:21.559Z,0
2017-06-02T01:36:21.328Z,0
2017-06-02T01:37:21.911Z,0
2017-06-02T01:38:51.164Z,0
2017-06-02T01:39:21.953Z,0
2017-06-02T01:40:21.981Z,0
2017-06-02T01:41:36.322Z,0
2017-06-02T01:43:22.048Z,0
2017-06-02T01:44:22.070Z,0
2017-06-02T01:45:22.091Z,0
2017-06-02T01:46:22.116Z,0
2017-06-02T01:47:21.880Z,0
2017-06-02T01:48:22.161Z,0
2017-06-02T01:49:36.495Z,0
2017-06-02T01:50:21.903Z,0
2017-06-02T01:51:36.542Z,0
2017-06-02T01:52:36.567Z,0
2017-06-02T01:53:51.203Z,0
2017-06-02T01:54:36.611Z,0
2017-06-02T01:55:22.018Z,0
2017-06-02T01:56:36.965Z,0
2017-06-02T01:57:22.063Z,0
2017-06-02T01:58:22.386Z,0
2017-06-02T01:59:22.111Z,0
2017-06-02T02:00:22.435Z,0
2017-06-02T02:01:22.457Z,0
2017-06-02T02:03:22.196Z,0
2017-06-02T02:04:22.576Z,0
2017-06-02T02:05:22.547Z,0
2017-06-02T02:06:22.265Z,0
2017-06-02T02:07:22.591Z,0
2017-06-02T02:08:22.612Z,0
2017-06-02T02:09:37.256Z,0
2017-06-02T02:10:36.974Z,0
2017-06-02T02:11:22.394Z,0
2017-06-02T02:12:37.322Z,0
2017-06-02T02:13:22.426Z,0
2017-06-02T02:14:22.443Z,0
2017-06-02T02:15:22.773Z,0
2017-06-02T02:16:22.804Z,0
2017-06-02T02:17:22.837Z,0
2017-06-02T02:19:22.862Z,0
2017-06-02T02:20:22.885Z,0
2017-06-02T02:21:22.905Z,0
2017-06-02T02:22:52.169Z,0
2017-06-02T02:23:22.649Z,0
2017-06-02T02:24:22.972Z,0
2017-06-02T02:25:22.997Z,0
2017-06-02T02:26:23.024Z,0
2017-06-02T02:27:37.669Z,0
2017-06-02T02:28:37.685Z,0
2017-06-02T02:29:23.086Z,0
2017-06-02T02:30:37.734Z,0
2017-06-02T02:31:23.132Z,0
2017-06-02T02:32:22.855Z,0
2017-06-02T02:33:23.177Z,0
2017-06-02T02:35:23.222Z,0
2017-06-02T02:36:23.249Z,0
2017-06-02T02:37:23.272Z,0
2017-06-02T02:38:37.912Z,0
2017-06-02T02:39:23.012Z,0
2017-06-02T02:40:23.336Z,0
2017-06-02T02:41:22.756Z,0
2017-06-02T02:42:23.386Z,5
2017-06-02T02:43:23.106Z,5
2017-06-02T02:44:38.041Z,5
2017-06-02T02:45:23.144Z,5
2017-06-02T02:46:23.164Z,5
2017-06-02T02:47:23.492Z,5
2017-06-02T02:48:22.915Z,5
2017-06-02T02:49:23.534Z,5
2017-06-02T02:51:23.584Z,5
2017-06-02T02:52:23.603Z,10
2017-06-02T02:53:23.624Z,10
2017-06-02T02:54:23.348Z,10
2017-06-02T02:55:23.369Z,10
2017-06-02T02:56:23.692Z,10
2017-06-02T02:57:23.716Z,10
2017-06-02T02:58:23.740Z,10
2017-06-02T02:59:38.074Z,10
2017-06-02T03:01:23.501Z,15
2017-06-02T03:02:23.225Z,15
2017-06-02T03:03:23.551Z,15
2017-06-02T03:04:23.569Z,15
2017-06-02T03:05:23.891Z,15
2017-06-02T03:06:23.612Z,15
2017-06-02T03:07:23.639Z,20
2017-06-02T03:08:23.655Z,20
2017-06-02T03:09:38.297Z,20
2017-06-02T03:10:23.702Z,20
2017-06-02T03:11:23.727Z,20
2017-06-02T03:12:23.755Z,25
2017-06-02T03:13:53.305Z,25
2017-06-02T03:14:24.092Z,25
2017-06-02T03:15:24.115Z,25
2017-06-02T03:16:38.755Z,25
2017-06-02T03:18:24.195Z,30
2017-06-02T03:19:24.203Z,30
2017-06-02T03:20:24.226Z,30
2017-06-02T03:21:23.645Z,30
2017-06-02T03:22:23.976Z,30
2017-06-02T03:23:23.994Z,35
2017-06-02T03:24:24.011Z,35
2017-06-02T03:25:24.038Z,35
2017-06-02T03:26:24.055Z,40
2017-06-02T03:27:24.386Z,40
2017-06-02T03:28:24.106Z,40
2017-06-02T03:29:38.743Z,45
2017-06-02T03:30:24.450Z,45
2017-06-02T03:31:39.089Z,45
2017-06-02T03:32:24.506Z,45
2017-06-02T03:33:24.527Z,50
2017-06-02T03:34:24.539Z,50
2017-06-02T03:35:24.560Z,50
2017-06-02T03:37:24.304Z,55
2017-06-02T03:38:24.630Z,55
2017-06-02T03:39:24.346Z,60
2017-06-02T03:40:24.722Z,115
2017-06-02T03:41:39.314Z,150
2017-06-02T03:42:24.716Z,110
2017-06-02T03:43:53.975Z,115
2017-06-02T03:45:24.784Z,110
2017-06-02T03:46:24.810Z,75
2017-06-02T03:47:39.448Z,70
2017-06-02T03:48:24.854Z,70
2017-06-02T03:49:24.578Z,75
2017-06-02T03:50:24.600Z,70
2017-06-02T03:51:24.619Z,80
2017-06-02T03:54:24.688Z,75
2017-06-02T03:55:25.009Z,90
2017-06-02T03:56:39.650Z,80
2017-06-02T03:57:24.758Z,80
2017-06-02T03:58:39.693Z,80
2017-06-02T03:59:24.795Z,80
2017-06-02T04:00:24.819Z,85
2017-06-02T04:01:39.765Z,85
2017-06-02T04:02:25.170Z,85
2017-06-02T04:03:39.808Z,85
2017-06-02T04:04:39.830Z,85
2017-06-02T04:05:25.235Z,85
2017-06-02T04:06:25.308Z,95
2017-06-02T04:07:25.283Z,115
2017-06-02T04:08:25.006Z,160
2017-06-02T04:09:25.326Z,420
2017-06-02T04:10:25.350Z,860
2017-06-02T04:11:39.991Z,950
2017-06-02T04:12:25.102Z,940
2017-06-02T04:13:40.035Z,950
2017-06-02T04:14:25.442Z,940
2017-06-02T04:15:39.782Z,695
2017-06-02T04:16:40.110Z,420
2017-06-02T04:17:25.541Z,410
2017-06-02T04:18:25.237Z,385
2017-06-02T04:19:39.882Z,345
2017-06-02T04:20:25.593Z,520
2017-06-02T04:22:25.644Z,430
2017-06-02T04:23:25.663Z,630
2017-06-02T04:24:25.689Z,905
2017-06-02T04:25:25.720Z,1040
2017-06-02T04:26:25.745Z,1105
2017-06-02T04:27:25.771Z,1080
2017-06-02T04:28:25.488Z,1095
2017-06-02T04:29:39.831Z,1115
2017-06-02T04:30:25.545Z,1135
2017-06-02T04:31:25.882Z,1130
2017-06-02T04:32:25.599Z,1170
2017-06-02T04:33:25.925Z,1290
2017-06-02T04:34:25.956Z,1260
2017-06-02T04:35:40.601Z,1205
2017-06-02T04:36:26.015Z,1170
2017-06-02T04:37:25.746Z,1180
2017-06-02T04:38:26.076Z,1230
2017-06-02T04:40:40.448Z,1220
2017-06-02T04:41:25.853Z,1235
2017-06-02T04:42:25.689Z,1255
2017-06-02T04:43:40.545Z,1250
2017-06-02T04:44:25.636Z,1255
2017-06-02T04:45:25.972Z,1255
2017-06-02T04:46:26.304Z,1280
2017-06-02T04:47:26.404Z,1275
2017-06-02T04:48:26.086Z,1265
2017-06-02T04:49:26.400Z,1285
2017-06-02T04:50:26.439Z,1305
2017-06-02T04:52:26.192Z,1265
2017-06-02T04:53:26.525Z,1290
2017-06-02T04:54:26.557Z,1365
2017-06-02T04:55:26.291Z,1340
2017-06-02T04:56:26.324Z,1285
2017-06-02T04:57:26.354Z,1335
2017-06-02T04:58:26.080Z,1350
2017-06-02T04:59:26.414Z,1355
2017-06-02T05:00:26.455Z,1400
2017-06-02T05:01:26.852Z,1350
2017-06-02T05:02:26.521Z,1300
2017-06-02T05:03:26.852Z,1340
2017-06-02T05:04:41.510Z,1280
2017-06-02T05:05:26.923Z,1265
2017-06-02T05:07:26.691Z,1405
2017-06-02T05:08:26.427Z,1400
2017-06-02T05:09:26.760Z,1395
2017-06-02T05:10:27.106Z,1375
2017-06-02T05:11:26.830Z,1405
2017-06-02T05:13:26.896Z,1445
2017-06-02T05:14:26.624Z,1385
2017-06-02T05:15:41.584Z,1365
2017-06-02T05:16:27.303Z,1360
2017-06-02T05:18:27.374Z,1385
2017-06-02T05:19:27.407Z,1380
2017-06-02T05:20:26.837Z,1375
2017-06-02T05:21:41.796Z,1350
2017-06-02T05:22:26.910Z,1355
2017-06-02T05:23:27.552Z,1390
2017-06-02T05:24:27.598Z,1375
2017-06-02T05:25:27.324Z,1405
2017-06-02T05:26:27.358Z,1430
2017-06-02T05:27:27.388Z,1435
2017-06-02T05:29:27.763Z,1410
2017-06-02T05:30:27.500Z,1445
2017-06-02T05:31:27.233Z,1445
2017-06-02T05:32:27.572Z,1475
2017-06-02T05:33:27.939Z,1455
2017-06-02T05:34:27.034Z,1385
2017-06-02T05:35:42.604Z,1345
2017-06-02T05:36:27.723Z,1355
2017-06-02T05:37:28.256Z,1445
2017-06-02T05:38:42.706Z,1440
2017-06-02T05:39:28.124Z,1380
2017-06-02T05:40:27.863Z,1380
2017-06-02T05:41:28.197Z,1425
2017-06-02T05:42:28.235Z,1435
2017-06-02T05:43:27.967Z,1440
2017-06-02T05:44:28.361Z,1475
2017-06-02T05:45:28.343Z,1480
2017-06-02T05:47:28.419Z,1475
2017-06-02T05:48:28.454Z,1435
2017-06-02T05:49:28.242Z,1455
2017-06-02T05:50:42.544Z,1445
2017-06-02T05:51:43.185Z,1475
2017-06-02T05:53:28.641Z,1430
2017-06-02T05:54:43.297Z,1405
2017-06-02T05:55:43.333Z,1440
2017-06-02T05:56:28.752Z,1450
2017-06-02T05:57:28.797Z,1400
2017-06-02T05:58:28.523Z,1310
2017-06-02T05:59:28.868Z,1175
2017-06-02T06:00:28.699Z,1195
2017-06-02T06:01:43.255Z,1390
2017-06-02T06:02:28.371Z,1455
2017-06-02T06:03:28.713Z,1385
2017-06-02T06:04:28.749Z,1410
2017-06-02T06:05:28.792Z,1415
2017-06-02T06:06:58.367Z,1370
2017-06-02T06:07:43.784Z,1395
2017-06-02T06:08:28.908Z,1415
2017-06-02T06:09:29.241Z,1390
2017-06-02T06:10:43.896Z,1395
2017-06-02T06:11:29.321Z,1385
2017-06-02T06:13:28.781Z,1435
2017-06-02T06:14:29.427Z,1375
2017-06-02T06:16:29.506Z,1395
2017-06-02T06:17:44.165Z,1340
2017-06-02T06:18:29.630Z,1385
2017-06-02T06:19:29.314Z,1365
2017-06-02T06:20:29.354Z,1295
2017-06-02T06:21:29.393Z,1165
2017-06-02T06:22:29.430Z,1340
2017-06-02T06:23:29.470Z,1300
2017-06-02T06:24:29.511Z,1340
2017-06-02T06:25:29.549Z,1390
2017-06-02T06:26:44.508Z,1335
2017-06-02T06:27:29.929Z,1335
2017-06-02T06:28:29.662Z,1290
2017-06-02T06:29:29.395Z,1290
2017-06-02T06:30:29.437Z,1375
2017-06-02T06:31:30.086Z,1385
2017-06-02T06:32:30.127Z,1305
2017-06-02T06:33:30.164Z,1270
2017-06-02T06:34:30.202Z,1270
2017-06-02T06:35:29.937Z,1245
2017-06-02T06:36:29.669Z,1290
2017-06-02T06:37:29.709Z,1350
2017-06-02T06:38:59.597Z,1250
2017-06-02T06:39:44.715Z,1270
2017-06-02T06:40:30.189Z,1305
2017-06-02T06:41:45.095Z,1270
2017-06-02T06:42:30.210Z,1265
2017-06-02T06:43:30.253Z,1290
2017-06-02T06:44:30.592Z,1270
2017-06-02T06:45:30.640Z,1200
2017-06-02T06:46:30.674Z,1190
2017-06-02T06:47:30.713Z,1225
2017-06-02T06:49:30.483Z,1165
2017-06-02T06:50:30.521Z,1170
2017-06-02T06:51:45.181Z,1195
2017-06-02T06:52:30.601Z,1175
2017-06-02T06:53:30.640Z,1135
2017-06-02T06:54:30.990Z,1100
2017-06-02T06:55:30.722Z,1065
2017-06-02T06:56:30.757Z,1030
2017-06-02T06:57:31.105Z,1010
2017-06-02T06:58:31.138Z,1005
2017-06-02T06:59:31.233Z,990
2017-06-02T07:00:31.069Z,935
2017-06-02T07:01:31.258Z,915
2017-06-02T07:02:31.000Z,870
2017-06-02T07:03:31.035Z,840
2017-06-02T07:04:31.074Z,810
2017-06-02T07:05:31.466Z,775
2017-06-02T07:06:31.459Z,755
2017-06-02T07:07:31.498Z,720
2017-06-02T07:08:31.537Z,685
2017-06-02T07:09:31.575Z,655
2017-06-02T07:10:46.233Z,615
2017-06-02T07:11:31.655Z,625
2017-06-02T07:12:31.694Z,615
2017-06-02T07:13:46.354Z,595
2017-06-02T07:14:31.775Z,590
2017-06-02T07:15:31.509Z,585
2017-06-02T07:16:31.546Z,615
2017-06-02T07:17:31.590Z,690
2017-06-02T07:19:31.667Z,800
2017-06-02T07:20:32.013Z,825
2017-06-02T07:21:31.748Z,840
2017-06-02T07:22:31.849Z,870
2017-06-02T07:23:32.129Z,1080
2017-06-02T07:24:32.169Z,1505
2017-06-02T07:27:31.690Z,935
2017-06-02T07:28:32.328Z,955
2017-06-02T07:29:46.731Z,990
2017-06-02T07:30:32.109Z,1005
2017-06-02T07:31:32.445Z,1015
2017-06-02T07:32:32.182Z,995
2017-06-02T07:33:32.219Z,995
2017-06-02T07:35:46.641Z,1010
2017-06-02T07:36:47.270Z,1040
2017-06-02T07:37:32.382Z,1070
2017-06-02T07:38:47.341Z,1015
2017-06-02T07:39:47.379Z,945
2017-06-02T07:40:32.800Z,940
2017-06-02T07:41:47.458Z,925
2017-06-02T07:42:32.577Z,935
2017-06-02T07:43:32.615Z,930
2017-06-02T07:44:47.578Z,830
2017-06-02T07:45:47.615Z,860
2017-06-02T07:46:33.095Z,830
2017-06-02T07:48:33.118Z,815
2017-06-02T07:49:33.156Z,835
2017-06-02T07:50:32.587Z,840
2017-06-02T07:51:32.985Z,845
2017-06-02T07:52:32.668Z,845
2017-06-02T07:53:33.013Z,815
2017-06-02T07:54:47.665Z,785
2017-06-02T07:55:33.094Z,775
2017-06-02T07:57:02.719Z,790
2017-06-02T07:57:33.175Z,790
2017-06-02T07:59:02.745Z,760
2017-06-02T07:59:33.543Z,745
2017-06-02T08:00:33.123Z,730
2017-06-02T08:01:48.244Z,735
2017-06-02T08:02:33.052Z,720
2017-06-02T08:03:33.242Z,695
2017-06-02T08:04:33.431Z,675
2017-06-02T08:05:33.480Z,665
2017-06-02T08:06:33.510Z,645
2017-06-02T08:07:33.549Z,640
2017-06-02T08:08:33.296Z,630
2017-06-02T08:09:33.330Z,615
2017-06-02T08:10:33.972Z,600
2017-06-02T08:11:34.020Z,595
2017-06-02T08:12:34.048Z,590
2017-06-02T08:14:03.021Z,565
2017-06-02T08:14:33.820Z,560
2017-06-02T08:15:33.554Z,565
2017-06-02T08:17:33.937Z,535
2017-06-02T08:18:48.897Z,535
2017-06-02T08:19:34.315Z,530
2017-06-02T08:21:34.396Z,510
2017-06-02T08:22:33.826Z,505
2017-06-02T08:23:34.473Z,485
2017-06-02T08:24:34.509Z,475
2017-06-02T08:25:34.545Z,475
2017-06-02T08:26:49.205Z,475
2017-06-02T08:27:49.250Z,470
2017-06-02T08:29:03.903Z,460
2017-06-02T08:29:34.402Z,460
2017-06-02T08:30:34.445Z,455
2017-06-02T08:31:34.499Z,440
2017-06-02T08:32:34.819Z,440
2017-06-02T08:34:49.518Z,435
2017-06-02T08:35:34.933Z,440
2017-06-02T08:36:34.722Z,440
2017-06-02T08:37:34.702Z,435
2017-06-02T08:38:35.042Z,435
2017-06-02T08:39:34.780Z,425
2017-06-02T08:40:35.367Z,420
2017-06-02T08:41:34.904Z,425
2017-06-02T08:42:34.894Z,415
2017-06-02T08:43:34.929Z,415
2017-06-02T08:44:49.891Z,425
2017-06-02T08:46:04.548Z,425
2017-06-02T08:46:35.346Z,415
2017-06-02T08:47:35.384Z,420
2017-06-02T08:48:50.039Z,415
2017-06-02T08:49:35.461Z,420
2017-06-02T08:50:35.499Z,420
2017-06-02T08:51:35.535Z,430
2017-06-02T08:54:04.903Z,405
2017-06-02T08:54:49.963Z,400
2017-06-02T08:55:35.078Z,395
2017-06-02T08:56:35.422Z,400
2017-06-02T08:57:35.458Z,400
2017-06-02T08:58:50.108Z,405
2017-06-02T09:00:05.119Z,400
2017-06-02T09:00:50.487Z,395
2017-06-02T09:02:05.143Z,390
2017-06-02T09:02:50.560Z,380
2017-06-02T09:03:35.370Z,375
2017-06-02T09:04:50.333Z,360
2017-06-02T09:05:35.749Z,355
2017-06-02T09:06:36.391Z,345
2017-06-02T09:07:35.820Z,325
2017-06-02T09:08:35.566Z,315
2017-06-02T09:09:35.895Z,300
2017-06-02T09:10:35.934Z,295
2017-06-02T09:11:36.030Z,295
2017-06-02T09:12:36.003Z,290
2017-06-02T09:13:36.347Z,295
2017-06-02T09:14:35.470Z,295
2017-06-02T09:15:36.114Z,290
2017-06-02T09:16:36.150Z,295
2017-06-02T09:17:36.187Z,275
2017-06-02T09:18:36.525Z,285
2017-06-02T09:19:36.561Z,285
2017-06-02T09:20:51.221Z,285
2017-06-02T09:21:36.638Z,285
2017-06-02T09:22:36.675Z,285
2017-06-02T09:23:36.711Z,280
2017-06-02T09:24:36.744Z,280
2017-06-02T09:26:36.818Z,280
2017-06-02T09:28:36.889Z,275
2017-06-02T09:29:36.928Z,275
2017-06-02T09:30:36.963Z,275
2017-06-02T09:31:36.997Z,270
2017-06-02T09:32:37.028Z,270
2017-06-02T09:34:06.000Z,270
2017-06-02T09:34:37.150Z,265
2017-06-02T09:35:51.755Z,270
2017-06-02T09:36:51.490Z,265
2017-06-02T09:37:51.824Z,265
2017-06-02T09:38:37.242Z,260
2017-06-02T09:39:37.285Z,265
2017-06-02T09:40:36.703Z,260
2017-06-02T09:44:37.147Z,265
2017-06-02T09:45:37.185Z,260
2017-06-02T09:46:37.219Z,260
2017-06-02T09:47:52.178Z,260
2017-06-02T09:49:06.832Z,260
2017-06-02T09:49:51.942Z,255
2017-06-02T09:50:37.055Z,255
2017-06-02T09:52:37.435Z,255
2017-06-02T09:53:37.464Z,255
2017-06-02T09:54:37.801Z,255
2017-06-02T09:55:37.843Z,255
2017-06-02T09:57:37.905Z,255
2017-06-02T09:59:37.972Z,255
2017-06-02T10:00:38.055Z,255
2017-06-02T10:01:38.045Z,255
2017-06-02T10:02:37.775Z,250
2017-06-02T10:03:52.427Z,250
2017-06-02T10:04:38.154Z,250
2017-06-02T10:05:38.181Z,250
2017-06-02T10:06:38.216Z,250
2017-06-02T10:07:38.252Z,250
2017-06-02T10:08:38.279Z,245
2017-06-02T10:09:38.317Z,255
2017-06-02T10:11:38.087Z,250
2017-06-02T10:12:38.421Z,250
2017-06-02T10:13:53.076Z,245
2017-06-02T10:14:52.805Z,250
2017-06-02T10:15:53.143Z,240
2017-06-02T10:16:38.557Z,240
2017-06-02T10:17:38.595Z,240
2017-06-02T10:18:38.626Z,235
2017-06-02T10:19:52.977Z,230
2017-06-02T10:20:38.389Z,230
2017-06-02T10:21:38.425Z,230
2017-06-02T10:22:38.759Z,230
2017-06-02T10:23:53.417Z,230
2017-06-02T10:25:53.494Z,225
2017-06-02T10:26:38.896Z,230
2017-06-02T10:27:38.931Z,225
2017-06-02T10:29:38.743Z,225
2017-06-02T10:30:38.725Z,225
2017-06-02T10:31:53.385Z,220
2017-06-02T10:32:39.100Z,220
2017-06-02T10:33:38.829Z,220
2017-06-02T10:34:39.167Z,220
2017-06-02T10:35:39.199Z,220
2017-06-02T10:36:38.929Z,220
2017-06-02T10:37:38.961Z,220
2017-06-02T10:39:53.648Z,220
2017-06-02T10:40:38.822Z,225
2017-06-02T10:41:39.406Z,225
2017-06-02T10:42:39.433Z,220
2017-06-02T10:43:39.167Z,220
2017-06-02T10:44:39.193Z,220
2017-06-02T10:45:39.530Z,220
2017-06-02T10:47:53.919Z,215
2017-06-02T10:48:54.251Z,215
2017-06-02T10:49:39.665Z,210
2017-06-02T10:50:39.706Z,210
2017-06-02T10:51:39.735Z,210
2017-06-02T10:53:54.114Z,210
2017-06-02T10:55:54.177Z,210
2017-06-02T10:56:39.901Z,210
2017-06-02T10:57:39.631Z,205
2017-06-02T10:58:39.968Z,205
2017-06-02T10:59:40.041Z,200
2017-06-02T11:00:40.075Z,205
2017-06-02T11:01:40.059Z,200
2017-06-02T11:02:39.787Z,205
2017-06-02T11:03:39.817Z,205
2017-06-02T11:04:40.155Z,205
2017-06-02T11:05:54.805Z,205
2017-06-02T11:06:40.222Z,205
2017-06-02T11:07:54.568Z,205
2017-06-02T11:08:54.906Z,205
2017-06-02T11:09:40.318Z,205
2017-06-02T11:10:40.351Z,205
2017-06-02T11:11:54.697Z,200
2017-06-02T11:12:55.039Z,200
2017-06-02T11:13:40.446Z,200
2017-06-02T11:14:40.242Z,195
2017-06-02T11:15:40.517Z,195
2017-06-02T11:16:40.545Z,200
2017-06-02T11:17:40.574Z,190
2017-06-02T11:18:40.303Z,190
2017-06-02T11:19:40.636Z,190
2017-06-02T11:20:40.673Z,190
2017-06-02T11:21:40.698Z,195
2017-06-02T11:22:40.783Z,190
2017-06-02T11:23:40.763Z,190
2017-06-02T11:24:40.492Z,190
2017-06-02T11:25:40.827Z,190
2017-06-02T11:26:55.178Z,190
2017-06-02T11:27:40.891Z,190
2017-06-02T11:28:40.923Z,190
2017-06-02T11:29:41.006Z,185
2017-06-02T11:31:41.042Z,185
2017-06-02T11:32:41.057Z,180
2017-06-02T11:33:40.784Z,180
2017-06-02T11:34:41.116Z,175
2017-06-02T11:35:41.194Z,175
2017-06-02T11:36:55.497Z,170
2017-06-02T11:38:10.447Z,170
2017-06-02T11:39:10.174Z,170
2017-06-02T11:39:55.587Z,170
2017-06-02T11:40:40.999Z,165
2017-06-02T11:41:41.334Z,165
2017-06-02T11:42:41.063Z,160
2017-06-02T11:43:41.395Z,160
2017-06-02T11:44:41.429Z,160
2017-06-02T11:45:41.465Z,160
2017-06-02T11:46:41.495Z,155
2017-06-02T11:47:41.228Z,155
2017-06-02T11:48:41.558Z,155
2017-06-02T11:49:41.585Z,155
2017-06-02T11:50:41.619Z,155
2017-06-02T11:51:41.651Z,155
2017-06-02T11:52:41.690Z,155
2017-06-02T11:53:41.714Z,155
2017-06-02T11:54:41.744Z,155
2017-06-02T11:55:41.780Z,155
2017-06-02T11:56:41.811Z,155
2017-06-02T11:57:56.456Z,160
2017-06-02T11:58:56.181Z,155
2017-06-02T11:59:41.900Z,160
2017-06-02T12:00:41.929Z,155
2017-06-02T12:01:41.959Z,155
2017-06-02T12:02:41.989Z,155
2017-06-02T12:03:42.019Z,155
2017-06-02T12:04:42.056Z,155
2017-06-02T12:05:41.782Z,160
2017-06-02T12:06:41.810Z,160
2017-06-02T12:07:42.149Z,160
2017-06-02T12:08:42.178Z,165
2017-06-02T12:09:42.209Z,165
2017-06-02T12:10:42.238Z,165
2017-06-02T12:11:42.272Z,165
2017-06-02T12:13:11.537Z,165
2017-06-02T12:13:42.331Z,165
2017-06-02T12:14:56.981Z,165
2017-06-02T12:15:42.396Z,165
2017-06-02T12:16:42.133Z,165
2017-06-02T12:17:42.459Z,165
2017-06-02T12:18:56.806Z,165
2017-06-02T12:19:42.518Z,165
2017-06-02T12:20:42.612Z,165
2017-06-02T12:21:42.273Z,160
2017-06-02T12:22:42.309Z,160
2017-06-02T12:23:42.643Z,160
2017-06-02T12:24:42.674Z,160
2017-06-02T12:25:42.707Z,160
2017-06-02T12:27:11.969Z,160
2017-06-02T12:27:42.762Z,160
2017-06-02T12:28:42.795Z,160
2017-06-02T12:29:42.824Z,160
2017-06-02T12:30:57.472Z,160
2017-06-02T12:31:42.886Z,160
2017-06-02T12:32:42.915Z,160
2017-06-02T12:33:42.945Z,160
2017-06-02T12:34:43.044Z,160
2017-06-02T12:35:43.006Z,160
2017-06-02T12:36:43.037Z,160
2017-06-02T12:37:43.069Z,160
2017-06-02T12:38:43.097Z,160
2017-06-02T12:39:57.746Z,155
2017-06-02T12:40:43.163Z,160
2017-06-02T12:41:43.187Z,160
2017-06-02T12:43:12.455Z,160
2017-06-02T12:43:43.251Z,160
2017-06-02T12:44:43.279Z,160
2017-06-02T12:45:43.358Z,160
2017-06-02T12:46:57.956Z,160
2017-06-02T12:47:42.759Z,160
2017-06-02T12:48:43.411Z,160
2017-06-02T12:49:43.120Z,160
2017-06-02T12:50:43.159Z,160
2017-06-02T12:51:43.492Z,160
2017-06-02T12:52:43.519Z,160
2017-06-02T12:54:43.575Z,160
2017-06-02T12:55:58.231Z,160
2017-06-02T12:56:58.260Z,160
2017-06-02T12:57:57.992Z,160
2017-06-02T12:58:43.753Z,160
2017-06-02T13:00:12.665Z,160
2017-06-02T13:00:58.126Z,160
2017-06-02T13:01:58.107Z,160
2017-06-02T13:02:58.441Z,160
2017-06-02T13:03:43.546Z,160
2017-06-02T13:04:58.500Z,160
2017-06-02T13:05:43.916Z,160
2017-06-02T13:06:43.941Z,160
2017-06-02T13:07:44.020Z,160
2017-06-02T13:09:44.030Z,160
2017-06-02T13:10:44.060Z,160
2017-06-02T13:11:44.121Z,160
2017-06-02T13:12:43.870Z,160
2017-06-02T13:13:44.154Z,165
2017-06-02T13:14:58.502Z,160
2017-06-02T13:16:13.451Z,160
2017-06-02T13:16:44.242Z,160
2017-06-02T13:17:44.275Z,160
2017-06-02T13:18:44.353Z,160
2017-06-02T13:19:58.953Z,160
2017-06-02T13:20:44.058Z,160
2017-06-02T13:21:44.392Z,160
2017-06-02T13:22:44.424Z,160
2017-06-02T13:23:44.450Z,160
2017-06-02T13:24:59.106Z,160
2017-06-02T13:25:44.512Z,160
2017-06-02T13:26:44.545Z,160
2017-06-02T13:27:58.894Z,160
2017-06-02T13:28:58.917Z,160
2017-06-02T13:29:44.635Z,160
2017-06-02T13:30:44.662Z,160
2017-06-02T13:31:44.691Z,160
2017-06-02T13:32:44.723Z,160
2017-06-02T13:33:59.073Z,160
2017-06-02T13:34:59.450Z,160
2017-06-02T13:35:59.433Z,160
2017-06-02T13:36:44.843Z,160
2017-06-02T13:37:44.871Z,160
2017-06-02T13:38:44.603Z,160
2017-06-02T13:40:44.981Z,160
2017-06-02T13:41:44.991Z,160
2017-06-02T13:42:45.027Z,160
2017-06-02T13:43:45.049Z,160
2017-06-02T13:44:45.081Z,165
2017-06-02T13:45:45.109Z,165
2017-06-02T13:47:14.377Z,165
2017-06-02T13:47:45.168Z,160
2017-06-02T13:48:45.197Z,160
2017-06-02T13:49:59.845Z,165
2017-06-02T13:50:59.879Z,165
2017-06-02T13:51:59.907Z,160
2017-06-02T13:52:59.639Z,165
2017-06-02T13:53:59.965Z,165
2017-06-02T13:54:45.378Z,165
2017-06-02T13:56:45.443Z,165
2017-06-02T13:57:45.471Z,165
2017-06-02T13:59:00.116Z,165
2017-06-02T13:59:45.230Z,165
2017-06-02T14:00:45.605Z,165
2017-06-02T14:01:44.981Z,165
2017-06-02T14:03:00.232Z,165
2017-06-02T14:03:45.642Z,165
2017-06-02T14:04:45.381Z,165
2017-06-02T14:06:00.376Z,165
2017-06-02T14:06:45.431Z,165
2017-06-02T14:07:45.457Z,165
2017-06-02T14:08:45.488Z,165
2017-06-02T14:09:45.522Z,165
2017-06-02T14:10:45.551Z,165
2017-06-02T14:12:00.206Z,165
2017-06-02T14:12:45.916Z,165
2017-06-02T14:13:45.635Z,165
2017-06-02T14:14:45.674Z,165
2017-06-02T14:15:45.698Z,165
2017-06-02T14:17:00.342Z,165
2017-06-02T14:17:45.755Z,165
2017-06-02T14:19:00.706Z,165
2017-06-02T14:19:45.817Z,165
2017-06-02T14:20:45.537Z,165
2017-06-02T14:22:00.497Z,165
2017-06-02T14:22:45.904Z,165
2017-06-02T14:23:46.233Z,165
2017-06-02T14:24:46.264Z,165
2017-06-02T14:25:45.988Z,165
2017-06-02T14:27:00.640Z,165
2017-06-02T14:27:46.048Z,165
2017-06-02T14:28:46.382Z,165
2017-06-02T14:29:46.410Z,165
2017-06-02T14:30:46.436Z,165
2017-06-02T14:31:46.477Z,165
2017-06-02T14:33:01.117Z,165
2017-06-02T14:33:46.526Z,165
2017-06-02T14:35:01.176Z,165
2017-06-02T14:35:46.590Z,165
2017-06-02T14:37:01.261Z,165
2017-06-02T14:37:46.671Z,165
2017-06-02T14:39:01.302Z,160
2017-06-02T14:39:46.709Z,160
2017-06-02T14:41:46.776Z,160
2017-06-02T14:42:46.792Z,160
2017-06-02T14:43:46.819Z,160
2017-06-02T14:44:46.903Z,160
2017-06-02T14:46:01.499Z,160
2017-06-02T14:47:01.527Z,160
2017-06-02T14:47:46.939Z,160
2017-06-02T14:49:01.591Z,160
2017-06-02T14:50:16.235Z,160
2017-06-02T14:50:47.089Z,160
2017-06-02T14:51:47.060Z,160
2017-06-02T14:52:47.084Z,160
2017-06-02T14:53:47.112Z,155
2017-06-02T14:54:46.891Z,155